sensor_id;sensor_type;location;lat;lon;timestamp;temperature;humidity
16578;DHT22;8401;52.528;13.340;2023-04-15T00:01:24;8.60;99.90
16578;DHT22;8401;52.528;13.340;2023-04-15T00:03:51;8.60;99.90
16578;DHT22;8401;52.528;13.340;2023-04-15T00:06:18;8.50;99.90
16578;DHT22;8401;52.528;13.340;2023-04-15T00:08:47;8.50;99.90
16578;DHT22;8401;52.528;13.340;2023-04-15T00:11:13;8.60;99.90
16578;DHT22;8401;52.528;13.340;2023-04-15T00:13:38;8.60;99.90
16578;DHT22;8401;52.528;13.340;2023-04-15T00:16:05;8.70;99.90
16578;DHT22;8401;52.528;13.340;2023-04-15T00:18:33;8.60;99.90
16578;DHT22;8401;52.528;13.340;2023-04-15T00:20:58;8.60;99.90
16578;DHT22;8401;52.528;13.340;2023-04-15T00:23:24;8.60;99.90
16578;DHT22;8401;52.528;13.340;2023-04-15T00:25:50;8.60;99.90
16578;DHT22;8401;52.528;13.340;2023-04-15T00:28:16;8.60;99.90
16578;DHT22;8401;52.528;13.340;2023-04-15T00:30:42;8.60;99.90
16578;DHT22;8401;52.528;13.340;2023-04-15T00:33:08;8.60;99.90
16578;DHT22;8401;52.528;13.340;2023-04-15T00:35:34;8.60;99.90
16578;DHT22;8401;52.528;13.340;2023-04-15T00:38:02;8.60;99.90
16578;DHT22;8401;52.528;13.340;2023-04-15T00:40:29;8.60;99.90
16578;DHT22;8401;52.528;13.340;2023-04-15T00:42:55;8.60;99.90
16578;DHT22;8401;52.528;13.340;2023-04-15T00:45:21;8.60;99.90
16578;DHT22;8401;52.528;13.340;2023-04-15T00:47:47;8.60;99.90
16578;DHT22;8401;52.528;13.340;2023-04-15T00:50:12;8.70;99.90
16578;DHT22;8401;52.528;13.340;2023-04-15T00:52:39;8.60;99.90
16578;DHT22;8401;52.528;13.340;2023-04-15T00:55:06;8.60;99.90
16578;DHT22;8401;52.528;13.340;2023-04-15T00:57:32;8.60;99.90
16578;DHT22;8401;52.528;13.340;2023-04-15T00:59:58;8.60;99.90
16578;DHT22;8401;52.528;13.340;2023-04-15T01:02:24;8.60;99.90
16578;DHT22;8401;52.528;13.340;2023-04-15T01:04:50;8.60;99.90
16578;DHT22;8401;52.528;13.340;2023-04-15T01:07:16;8.60;99.90
16578;DHT22;8401;52.528;13.340;2023-04-15T01:09:42;8.60;99.90
16578;DHT22;8401;52.528;13.340;2023-04-15T01:12:11;8.60;99.90
16578;DHT22;8401;52.528;13.340;2023-04-15T01:14:37;8.60;99.90
16578;DHT22;8401;52.528;13.340;2023-04-15T01:17:02;8.60;99.90
16578;DHT22;8401;52.528;13.340;2023-04-15T01:19:28;8.60;99.90
16578;DHT22;8401;52.528;13.340;2023-04-15T01:21:55;8.60;99.90
16578;DHT22;8401;52.528;13.340;2023-04-15T01:24:22;8.70;99.90
16578;DHT22;8401;52.528;13.340;2023-04-15T01:26:48;8.70;99.90
16578;DHT22;8401;52.528;13.340;2023-04-15T01:29:14;8.70;99.90
16578;DHT22;8401;52.528;13.340;2023-04-15T01:31:47;8.60;99.90
16578;DHT22;8401;52.528;13.340;2023-04-15T01:34:14;8.60;99.90
16578;DHT22;8401;52.528;13.340;2023-04-15T01:36:39;8.70;99.90
16578;DHT22;8401;52.528;13.340;2023-04-15T01:39:05;8.70;99.90
16578;DHT22;8401;52.528;13.340;2023-04-15T01:41:31;8.70;99.90
16578;DHT22;8401;52.528;13.340;2023-04-15T01:43:57;8.70;99.90
16578;DHT22;8401;52.528;13.340;2023-04-15T01:46:22;8.70;99.90
16578;DHT22;8401;52.528;13.340;2023-04-15T01:48:48;8.60;99.90
16578;DHT22;8401;52.528;13.340;2023-04-15T01:51:14;8.70;99.90
16578;DHT22;8401;52.528;13.340;2023-04-15T01:53:40;8.70;99.90
16578;DHT22;8401;52.528;13.340;2023-04-15T01:56:06;8.70;99.90
16578;DHT22;8401;52.528;13.340;2023-04-15T01:58:31;8.70;99.90
16578;DHT22;8401;52.528;13.340;2023-04-15T02:00:57;8.70;99.90
16578;DHT22;8401;52.528;13.340;2023-04-15T02:03:24;8.70;99.90
16578;DHT22;8401;52.528;13.340;2023-04-15T02:05:50;8.70;99.90
16578;DHT22;8401;52.528;13.340;2023-04-15T02:08:16;8.70;99.90
16578;DHT22;8401;52.528;13.340;2023-04-15T02:10:42;8.70;99.90
16578;DHT22;8401;52.528;13.340;2023-04-15T02:13:08;8.70;99.90
16578;DHT22;8401;52.528;13.340;2023-04-15T02:15:33;8.70;99.90
16578;DHT22;8401;52.528;13.340;2023-04-15T02:17:59;8.80;99.90
16578;DHT22;8401;52.528;13.340;2023-04-15T02:20:26;8.80;99.90
16578;DHT22;8401;52.528;13.340;2023-04-15T02:22:52;8.80;99.90
16578;DHT22;8401;52.528;13.340;2023-04-15T02:25:18;8.70;99.90
16578;DHT22;8401;52.528;13.340;2023-04-15T02:27:44;8.70;99.90
16578;DHT22;8401;52.528;13.340;2023-04-15T02:30:10;8.70;99.90
16578;DHT22;8401;52.528;13.340;2023-04-15T02:32:36;8.80;99.90
16578;DHT22;8401;52.528;13.340;2023-04-15T02:35:06;8.80;99.90
16578;DHT22;8401;52.528;13.340;2023-04-15T02:37:35;8.80;99.90
16578;DHT22;8401;52.528;13.340;2023-04-15T02:40:07;8.80;99.90
16578;DHT22;8401;52.528;13.340;2023-04-15T02:42:33;8.80;99.90
16578;DHT22;8401;52.528;13.340;2023-04-15T02:44:59;8.80;99.90
16578;DHT22;8401;52.528;13.340;2023-04-15T02:47:25;8.70;99.90
16578;DHT22;8401;52.528;13.340;2023-04-15T02:49:51;8.70;99.90
16578;DHT22;8401;52.528;13.340;2023-04-15T02:52:16;8.70;99.90
16578;DHT22;8401;52.528;13.340;2023-04-15T02:54:42;8.70;99.90
16578;DHT22;8401;52.528;13.340;2023-04-15T02:57:08;8.70;99.90
16578;DHT22;8401;52.528;13.340;2023-04-15T02:59:35;8.70;99.90
16578;DHT22;8401;52.528;13.340;2023-04-15T03:02:00;8.70;99.90
16578;DHT22;8401;52.528;13.340;2023-04-15T03:04:26;8.70;99.90
16578;DHT22;8401;52.528;13.340;2023-04-15T03:06:54;8.70;99.90
16578;DHT22;8401;52.528;13.340;2023-04-15T03:09:20;8.80;99.90
16578;DHT22;8401;52.528;13.340;2023-04-15T03:11:46;8.80;99.90
16578;DHT22;8401;52.528;13.340;2023-04-15T03:14:11;8.80;99.90
16578;DHT22;8401;52.528;13.340;2023-04-15T03:16:37;8.80;99.90
16578;DHT22;8401;52.528;13.340;2023-04-15T03:19:03;8.80;99.90
16578;DHT22;8401;52.528;13.340;2023-04-15T03:21:28;8.90;99.90
16578;DHT22;8401;52.528;13.340;2023-04-15T03:23:55;8.90;99.90
16578;DHT22;8401;52.528;13.340;2023-04-15T03:26:28;8.90;99.90
16578;DHT22;8401;52.528;13.340;2023-04-15T03:28:54;8.90;99.90
16578;DHT22;8401;52.528;13.340;2023-04-15T03:31:19;8.90;99.90
16578;DHT22;8401;52.528;13.340;2023-04-15T03:33:45;8.90;99.90
16578;DHT22;8401;52.528;13.340;2023-04-15T03:36:11;8.90;99.90
16578;DHT22;8401;52.528;13.340;2023-04-15T03:38:36;9.00;99.90
16578;DHT22;8401;52.528;13.340;2023-04-15T03:41:02;8.90;99.90
16578;DHT22;8401;52.528;13.340;2023-04-15T03:43:28;9.00;99.90
16578;DHT22;8401;52.528;13.340;2023-04-15T03:45:53;8.90;99.90
16578;DHT22;8401;52.528;13.340;2023-04-15T03:48:19;8.90;99.90
16578;DHT22;8401;52.528;13.340;2023-04-15T03:50:44;8.90;99.90
16578;DHT22;8401;52.528;13.340;2023-04-15T03:53:10;9.00;99.90
16578;DHT22;8401;52.528;13.340;2023-04-15T03:55:36;9.00;99.90
16578;DHT22;8401;52.528;13.340;2023-04-15T03:58:02;9.10;99.90
16578;DHT22;8401;52.528;13.340;2023-04-15T04:00:28;9.10;99.90
16578;DHT22;8401;52.528;13.340;2023-04-15T04:02:53;9.00;99.90
16578;DHT22;8401;52.528;13.340;2023-04-15T04:05:19;9.00;99.90
16578;DHT22;8401;52.528;13.340;2023-04-15T04:07:45;9.10;99.90
16578;DHT22;8401;52.528;13.340;2023-04-15T04:10:10;9.10;99.90
16578;DHT22;8401;52.528;13.340;2023-04-15T04:12:36;9.10;99.90
16578;DHT22;8401;52.528;13.340;2023-04-15T04:15:02;9.00;99.90
16578;DHT22;8401;52.528;13.340;2023-04-15T04:17:27;9.00;99.90
16578;DHT22;8401;52.528;13.340;2023-04-15T04:19:53;9.00;99.90
16578;DHT22;8401;52.528;13.340;2023-04-15T04:22:22;9.00;99.90
16578;DHT22;8401;52.528;13.340;2023-04-15T04:24:48;9.00;99.90
16578;DHT22;8401;52.528;13.340;2023-04-15T04:27:14;9.00;99.90
16578;DHT22;8401;52.528;13.340;2023-04-15T04:29:39;9.00;99.90
16578;DHT22;8401;52.528;13.340;2023-04-15T04:32:05;9.10;99.90
16578;DHT22;8401;52.528;13.340;2023-04-15T04:34:31;9.10;99.90
16578;DHT22;8401;52.528;13.340;2023-04-15T04:36:56;9.10;99.90
16578;DHT22;8401;52.528;13.340;2023-04-15T04:39:22;9.10;99.90
16578;DHT22;8401;52.528;13.340;2023-04-15T04:41:48;9.10;99.90
16578;DHT22;8401;52.528;13.340;2023-04-15T04:44:14;9.10;99.90
16578;DHT22;8401;52.528;13.340;2023-04-15T04:46:40;9.10;99.90
16578;DHT22;8401;52.528;13.340;2023-04-15T04:49:06;9.10;99.90
16578;DHT22;8401;52.528;13.340;2023-04-15T04:51:32;9.10;99.90
16578;DHT22;8401;52.528;13.340;2023-04-15T04:53:57;9.10;99.90
16578;DHT22;8401;52.528;13.340;2023-04-15T04:56:23;9.20;99.90
16578;DHT22;8401;52.528;13.340;2023-04-15T04:58:48;9.20;99.90
16578;DHT22;8401;52.528;13.340;2023-04-15T05:01:14;9.20;99.90
16578;DHT22;8401;52.528;13.340;2023-04-15T05:03:40;9.30;99.90
16578;DHT22;8401;52.528;13.340;2023-04-15T05:06:06;9.30;99.90
16578;DHT22;8401;52.528;13.340;2023-04-15T05:08:33;9.30;99.90
16578;DHT22;8401;52.528;13.340;2023-04-15T05:10:58;9.30;99.90
16578;DHT22;8401;52.528;13.340;2023-04-15T05:13:25;9.30;99.90
16578;DHT22;8401;52.528;13.340;2023-04-15T05:15:50;9.30;99.90
16578;DHT22;8401;52.528;13.340;2023-04-15T05:18:16;9.30;99.90
16578;DHT22;8401;52.528;13.340;2023-04-15T05:20:41;9.30;99.90
16578;DHT22;8401;52.528;13.340;2023-04-15T05:23:07;9.40;99.90
16578;DHT22;8401;52.528;13.340;2023-04-15T05:25:33;9.40;99.90
16578;DHT22;8401;52.528;13.340;2023-04-15T05:27:58;9.40;99.90
16578;DHT22;8401;52.528;13.340;2023-04-15T05:30:24;9.40;99.90
16578;DHT22;8401;52.528;13.340;2023-04-15T05:32:51;9.40;99.90
16578;DHT22;8401;52.528;13.340;2023-04-15T05:35:16;9.40;99.90
16578;DHT22;8401;52.528;13.340;2023-04-15T05:37:42;9.50;99.90
16578;DHT22;8401;52.528;13.340;2023-04-15T05:40:08;9.50;99.90
16578;DHT22;8401;52.528;13.340;2023-04-15T05:42:35;9.50;99.90
16578;DHT22;8401;52.528;13.340;2023-04-15T05:45:01;9.60;99.90
16578;DHT22;8401;52.528;13.340;2023-04-15T05:47:30;9.60;99.90
16578;DHT22;8401;52.528;13.340;2023-04-15T05:49:56;9.60;99.90
16578;DHT22;8401;52.528;13.340;2023-04-15T05:52:23;9.60;99.90
16578;DHT22;8401;52.528;13.340;2023-04-15T05:54:49;9.60;99.90
16578;DHT22;8401;52.528;13.340;2023-04-15T05:57:15;9.70;99.90
16578;DHT22;8401;52.528;13.340;2023-04-15T05:59:40;9.70;99.90
16578;DHT22;8401;52.528;13.340;2023-04-15T06:02:07;9.70;99.90
16578;DHT22;8401;52.528;13.340;2023-04-15T06:04:34;9.80;99.90
16578;DHT22;8401;52.528;13.340;2023-04-15T06:06:59;9.90;99.90
16578;DHT22;8401;52.528;13.340;2023-04-15T06:09:25;9.90;99.90
16578;DHT22;8401;52.528;13.340;2023-04-15T06:11:51;9.90;99.90
16578;DHT22;8401;52.528;13.340;2023-04-15T06:14:17;10.00;99.90
16578;DHT22;8401;52.528;13.340;2023-04-15T06:16:43;10.10;99.90
16578;DHT22;8401;52.528;13.340;2023-04-15T06:19:08;10.10;99.90
16578;DHT22;8401;52.528;13.340;2023-04-15T06:21:34;10.10;99.90
16578;DHT22;8401;52.528;13.340;2023-04-15T06:24:00;10.10;99.90
16578;DHT22;8401;52.528;13.340;2023-04-15T06:26:26;10.20;99.90
16578;DHT22;8401;52.528;13.340;2023-04-15T06:28:52;10.20;99.90
16578;DHT22;8401;52.528;13.340;2023-04-15T06:31:18;10.20;99.90
16578;DHT22;8401;52.528;13.340;2023-04-15T06:33:44;10.20;99.90
16578;DHT22;8401;52.528;13.340;2023-04-15T06:36:09;10.30;99.90
16578;DHT22;8401;52.528;13.340;2023-04-15T06:38:35;10.40;99.90
16578;DHT22;8401;52.528;13.340;2023-04-15T06:41:02;10.60;99.90
16578;DHT22;8401;52.528;13.340;2023-04-15T06:43:28;10.60;99.90
16578;DHT22;8401;52.528;13.340;2023-04-15T06:45:54;10.60;99.90
16578;DHT22;8401;52.528;13.340;2023-04-15T06:48:21;10.70;99.90
16578;DHT22;8401;52.528;13.340;2023-04-15T06:50:47;11.00;99.90
16578;DHT22;8401;52.528;13.340;2023-04-15T06:53:13;11.00;99.90
16578;DHT22;8401;52.528;13.340;2023-04-15T06:55:39;11.10;99.90
16578;DHT22;8401;52.528;13.340;2023-04-15T06:58:06;11.50;99.90
16578;DHT22;8401;52.528;13.340;2023-04-15T07:00:32;11.60;99.90
16578;DHT22;8401;52.528;13.340;2023-04-15T07:02:58;11.80;99.90
16578;DHT22;8401;52.528;13.340;2023-04-15T07:05:28;11.90;99.90
16578;DHT22;8401;52.528;13.340;2023-04-15T07:07:53;12.10;99.90
16578;DHT22;8401;52.528;13.340;2023-04-15T07:10:20;12.20;99.90
16578;DHT22;8401;52.528;13.340;2023-04-15T07:12:46;12.20;99.90
16578;DHT22;8401;52.528;13.340;2023-04-15T07:15:12;12.20;99.90
16578;DHT22;8401;52.528;13.340;2023-04-15T07:17:38;12.00;99.90
16578;DHT22;8401;52.528;13.340;2023-04-15T07:20:03;12.30;99.90
16578;DHT22;8401;52.528;13.340;2023-04-15T07:22:29;12.30;99.90
16578;DHT22;8401;52.528;13.340;2023-04-15T07:24:55;12.30;99.90
16578;DHT22;8401;52.528;13.340;2023-04-15T07:27:21;12.20;99.90
16578;DHT22;8401;52.528;13.340;2023-04-15T07:29:47;12.20;99.90
16578;DHT22;8401;52.528;13.340;2023-04-15T07:32:13;12.10;99.90
16578;DHT22;8401;52.528;13.340;2023-04-15T07:34:38;12.10;99.90
16578;DHT22;8401;52.528;13.340;2023-04-15T07:37:04;12.00;99.90
16578;DHT22;8401;52.528;13.340;2023-04-15T07:39:29;11.90;99.90
16578;DHT22;8401;52.528;13.340;2023-04-15T07:41:55;11.90;99.90
16578;DHT22;8401;52.528;13.340;2023-04-15T07:44:21;11.80;99.90
16578;DHT22;8401;52.528;13.340;2023-04-15T07:46:47;11.70;99.90
16578;DHT22;8401;52.528;13.340;2023-04-15T07:49:12;11.70;99.90
16578;DHT22;8401;52.528;13.340;2023-04-15T07:51:38;11.60;99.90
16578;DHT22;8401;52.528;13.340;2023-04-15T07:54:04;11.70;99.90
16578;DHT22;8401;52.528;13.340;2023-04-15T07:56:30;11.70;99.90
16578;DHT22;8401;52.528;13.340;2023-04-15T07:58:55;11.70;99.90
16578;DHT22;8401;52.528;13.340;2023-04-15T08:01:21;11.70;99.90
16578;DHT22;8401;52.528;13.340;2023-04-15T08:03:47;11.50;99.90
16578;DHT22;8401;52.528;13.340;2023-04-15T08:06:12;11.40;99.90
16578;DHT22;8401;52.528;13.340;2023-04-15T08:08:38;11.40;99.90
16578;DHT22;8401;52.528;13.340;2023-04-15T08:11:04;11.60;99.90
16578;DHT22;8401;52.528;13.340;2023-04-15T08:13:30;11.70;99.90
16578;DHT22;8401;52.528;13.340;2023-04-15T08:16:21;11.80;99.90
16578;DHT22;8401;52.528;13.340;2023-04-15T08:18:48;11.80;99.90
16578;DHT22;8401;52.528;13.340;2023-04-15T08:21:14;11.60;99.90
16578;DHT22;8401;52.528;13.340;2023-04-15T08:23:40;11.70;99.90
16578;DHT22;8401;52.528;13.340;2023-04-15T08:26:06;11.70;99.90
16578;DHT22;8401;52.528;13.340;2023-04-15T08:28:33;11.60;99.90
16578;DHT22;8401;52.528;13.340;2023-04-15T08:30:58;11.60;99.90
16578;DHT22;8401;52.528;13.340;2023-04-15T08:33:24;11.50;99.90
16578;DHT22;8401;52.528;13.340;2023-04-15T08:35:50;11.60;99.90
16578;DHT22;8401;52.528;13.340;2023-04-15T08:38:16;11.60;99.90
16578;DHT22;8401;52.528;13.340;2023-04-15T08:40:44;11.60;99.90
16578;DHT22;8401;52.528;13.340;2023-04-15T08:43:14;11.50;99.90
16578;DHT22;8401;52.528;13.340;2023-04-15T08:45:43;11.40;99.90
16578;DHT22;8401;52.528;13.340;2023-04-15T08:48:14;11.50;99.90
16578;DHT22;8401;52.528;13.340;2023-04-15T08:50:41;11.30;99.90
16578;DHT22;8401;52.528;13.340;2023-04-15T08:53:08;11.30;99.90
16578;DHT22;8401;52.528;13.340;2023-04-15T08:55:35;11.40;99.90
16578;DHT22;8401;52.528;13.340;2023-04-15T08:58:05;11.80;99.90
16578;DHT22;8401;52.528;13.340;2023-04-15T09:00:31;11.80;99.90
16578;DHT22;8401;52.528;13.340;2023-04-15T09:02:58;11.70;99.90
16578;DHT22;8401;52.528;13.340;2023-04-15T09:05:24;11.70;99.90
16578;DHT22;8401;52.528;13.340;2023-04-15T09:07:50;11.70;99.90
16578;DHT22;8401;52.528;13.340;2023-04-15T09:10:16;11.60;99.90
16578;DHT22;8401;52.528;13.340;2023-04-15T09:12:42;11.60;99.90
16578;DHT22;8401;52.528;13.340;2023-04-15T09:15:10;11.60;99.90
16578;DHT22;8401;52.528;13.340;2023-04-15T09:17:42;11.50;99.90
16578;DHT22;8401;52.528;13.340;2023-04-15T09:20:09;11.60;99.90
16578;DHT22;8401;52.528;13.340;2023-04-15T09:22:36;11.50;99.90
16578;DHT22;8401;52.528;13.340;2023-04-15T09:25:02;11.70;99.90
16578;DHT22;8401;52.528;13.340;2023-04-15T09:27:28;11.70;99.90
16578;DHT22;8401;52.528;13.340;2023-04-15T09:29:54;11.60;99.90
16578;DHT22;8401;52.528;13.340;2023-04-15T09:32:20;11.60;99.90
16578;DHT22;8401;52.528;13.340;2023-04-15T09:34:47;11.60;99.90
16578;DHT22;8401;52.528;13.340;2023-04-15T09:37:13;11.60;99.90
16578;DHT22;8401;52.528;13.340;2023-04-15T09:39:50;11.70;99.90
16578;DHT22;8401;52.528;13.340;2023-04-15T09:42:16;11.80;99.90
16578;DHT22;8401;52.528;13.340;2023-04-15T09:44:49;11.60;99.90
16578;DHT22;8401;52.528;13.340;2023-04-15T09:47:31;11.80;99.90
16578;DHT22;8401;52.528;13.340;2023-04-15T09:49:58;12.00;99.90
16578;DHT22;8401;52.528;13.340;2023-04-15T09:52:24;12.10;99.90
16578;DHT22;8401;52.528;13.340;2023-04-15T09:54:52;12.00;99.90
16578;DHT22;8401;52.528;13.340;2023-04-15T09:57:19;12.00;99.90
16578;DHT22;8401;52.528;13.340;2023-04-15T09:59:44;11.80;99.90
16578;DHT22;8401;52.528;13.340;2023-04-15T10:02:12;11.80;99.90
16578;DHT22;8401;52.528;13.340;2023-04-15T10:04:40;11.80;99.90
16578;DHT22;8401;52.528;13.340;2023-04-15T10:07:07;11.80;99.90
16578;DHT22;8401;52.528;13.340;2023-04-15T10:09:35;11.80;99.90
16578;DHT22;8401;52.528;13.340;2023-04-15T10:12:03;11.60;99.90
16578;DHT22;8401;52.528;13.340;2023-04-15T10:14:32;11.60;99.90
16578;DHT22;8401;52.528;13.340;2023-04-15T10:17:00;11.60;99.90
16578;DHT22;8401;52.528;13.340;2023-04-15T10:19:27;11.50;99.90
16578;DHT22;8401;52.528;13.340;2023-04-15T10:21:56;11.40;99.90
16578;DHT22;8401;52.528;13.340;2023-04-15T10:24:23;11.30;99.90
16578;DHT22;8401;52.528;13.340;2023-04-15T10:26:50;11.20;99.90
16578;DHT22;8401;52.528;13.340;2023-04-15T10:29:16;11.60;99.90
16578;DHT22;8401;52.528;13.340;2023-04-15T10:31:42;11.60;99.90
16578;DHT22;8401;52.528;13.340;2023-04-15T10:34:09;11.50;99.90
16578;DHT22;8401;52.528;13.340;2023-04-15T10:36:35;11.70;99.90
16578;DHT22;8401;52.528;13.340;2023-04-15T10:39:01;11.80;99.90
16578;DHT22;8401;52.528;13.340;2023-04-15T10:41:27;11.60;99.90
16578;DHT22;8401;52.528;13.340;2023-04-15T10:49:26;12.00;99.90
16578;DHT22;8401;52.528;13.340;2023-04-15T10:51:56;11.80;99.90
16578;DHT22;8401;52.528;13.340;2023-04-15T10:59:32;11.70;99.90
16578;DHT22;8401;52.528;13.340;2023-04-15T11:02:06;11.90;99.90
16578;DHT22;8401;52.528;13.340;2023-04-15T11:04:54;11.80;99.90
16578;DHT22;8401;52.528;13.340;2023-04-15T11:07:33;11.70;99.90
16578;DHT22;8401;52.528;13.340;2023-04-15T11:09:59;11.70;99.90
16578;DHT22;8401;52.528;13.340;2023-04-15T11:12:36;11.60;99.90
16578;DHT22;8401;52.528;13.340;2023-04-15T11:20:35;11.80;99.90
16578;DHT22;8401;52.528;13.340;2023-04-15T11:23:00;11.90;99.90
16578;DHT22;8401;52.528;13.340;2023-04-15T11:25:33;12.10;99.90
16578;DHT22;8401;52.528;13.340;2023-04-15T11:28:00;12.10;99.90
16578;DHT22;8401;52.528;13.340;2023-04-15T11:30:31;11.70;99.90
16578;DHT22;8401;52.528;13.340;2023-04-15T11:33:02;11.50;99.90
16578;DHT22;8401;52.528;13.340;2023-04-15T11:35:29;11.40;99.90
16578;DHT22;8401;52.528;13.340;2023-04-15T11:37:55;11.60;99.90
16578;DHT22;8401;52.528;13.340;2023-04-15T11:40:25;11.70;99.90
16578;DHT22;8401;52.528;13.340;2023-04-15T11:43:08;11.50;99.90
16578;DHT22;8401;52.528;13.340;2023-04-15T11:45:35;11.70;99.90
16578;DHT22;8401;52.528;13.340;2023-04-15T11:48:08;11.90;99.90
16578;DHT22;8401;52.528;13.340;2023-04-15T11:50:35;11.80;99.90
16578;DHT22;8401;52.528;13.340;2023-04-15T11:53:03;11.80;99.90
16578;DHT22;8401;52.528;13.340;2023-04-15T11:55:29;11.60;99.90
16578;DHT22;8401;52.528;13.340;2023-04-15T11:58:25;11.50;99.90
16578;DHT22;8401;52.528;13.340;2023-04-15T12:00:59;11.60;99.90
16578;DHT22;8401;52.528;13.340;2023-04-15T12:03:26;11.50;99.90
16578;DHT22;8401;52.528;13.340;2023-04-15T12:06:21;11.50;99.90
16578;DHT22;8401;52.528;13.340;2023-04-15T12:14:24;11.80;99.90
16578;DHT22;8401;52.528;13.340;2023-04-15T12:16:58;11.80;99.90
16578;DHT22;8401;52.528;13.340;2023-04-15T12:19:54;11.90;99.90
16578;DHT22;8401;52.528;13.340;2023-04-15T12:22:20;11.90;99.90
16578;DHT22;8401;52.528;13.340;2023-04-15T12:24:46;11.90;99.90
16578;DHT22;8401;52.528;13.340;2023-04-15T12:27:16;11.80;99.90
16578;DHT22;8401;52.528;13.340;2023-04-15T12:29:42;11.60;99.90
16578;DHT22;8401;52.528;13.340;2023-04-15T12:32:09;11.60;99.90
16578;DHT22;8401;52.528;13.340;2023-04-15T12:34:47;11.70;99.90
16578;DHT22;8401;52.528;13.340;2023-04-15T12:37:14;12.00;99.90
16578;DHT22;8401;52.528;13.340;2023-04-15T12:39:42;12.00;99.90
16578;DHT22;8401;52.528;13.340;2023-04-15T12:42:08;12.00;99.90
16578;DHT22;8401;52.528;13.340;2023-04-15T12:44:35;12.10;99.90
16578;DHT22;8401;52.528;13.340;2023-04-15T12:47:01;12.20;99.90
16578;DHT22;8401;52.528;13.340;2023-04-15T12:49:28;12.30;99.90
16578;DHT22;8401;52.528;13.340;2023-04-15T12:51:55;12.20;99.90
16578;DHT22;8401;52.528;13.340;2023-04-15T12:54:21;11.90;99.90
16578;DHT22;8401;52.528;13.340;2023-04-15T12:56:48;12.10;99.90
16578;DHT22;8401;52.528;13.340;2023-04-15T12:59:15;11.90;99.90
16578;DHT22;8401;52.528;13.340;2023-04-15T13:01:43;11.70;99.90
16578;DHT22;8401;52.528;13.340;2023-04-15T13:04:09;11.80;99.90
16578;DHT22;8401;52.528;13.340;2023-04-15T13:06:35;11.70;99.90
16578;DHT22;8401;52.528;13.340;2023-04-15T13:09:02;11.60;99.90
16578;DHT22;8401;52.528;13.340;2023-04-15T13:11:28;11.70;99.90
16578;DHT22;8401;52.528;13.340;2023-04-15T13:13:56;11.70;99.90
16578;DHT22;8401;52.528;13.340;2023-04-15T13:16:25;11.60;99.90
16578;DHT22;8401;52.528;13.340;2023-04-15T13:18:50;11.60;99.90
16578;DHT22;8401;52.528;13.340;2023-04-15T13:21:18;11.90;99.90
16578;DHT22;8401;52.528;13.340;2023-04-15T13:23:44;11.90;99.90
16578;DHT22;8401;52.528;13.340;2023-04-15T13:26:10;12.00;99.90
16578;DHT22;8401;52.528;13.340;2023-04-15T13:28:35;11.90;99.90
16578;DHT22;8401;52.528;13.340;2023-04-15T13:31:01;11.80;99.90
16578;DHT22;8401;52.528;13.340;2023-04-15T13:33:27;11.80;99.90
16578;DHT22;8401;52.528;13.340;2023-04-15T13:35:53;11.70;99.90
16578;DHT22;8401;52.528;13.340;2023-04-15T13:38:19;11.80;99.90
16578;DHT22;8401;52.528;13.340;2023-04-15T13:40:44;11.80;99.90
16578;DHT22;8401;52.528;13.340;2023-04-15T13:43:11;11.80;99.90
16578;DHT22;8401;52.528;13.340;2023-04-15T13:45:36;11.60;99.90
16578;DHT22;8401;52.528;13.340;2023-04-15T13:48:03;11.60;99.90
16578;DHT22;8401;52.528;13.340;2023-04-15T13:50:28;11.50;99.90
16578;DHT22;8401;52.528;13.340;2023-04-15T13:52:54;11.50;99.90
16578;DHT22;8401;52.528;13.340;2023-04-15T13:55:20;11.60;99.90
16578;DHT22;8401;52.528;13.340;2023-04-15T13:57:46;11.60;99.90
16578;DHT22;8401;52.528;13.340;2023-04-15T14:00:12;11.60;99.90
16578;DHT22;8401;52.528;13.340;2023-04-15T14:02:39;11.50;99.90
16578;DHT22;8401;52.528;13.340;2023-04-15T14:05:05;11.50;99.90
16578;DHT22;8401;52.528;13.340;2023-04-15T14:07:30;11.60;99.90
16578;DHT22;8401;52.528;13.340;2023-04-15T14:09:56;11.50;99.90
16578;DHT22;8401;52.528;13.340;2023-04-15T14:12:22;11.50;99.90
16578;DHT22;8401;52.528;13.340;2023-04-15T14:14:47;11.70;99.90
16578;DHT22;8401;52.528;13.340;2023-04-15T14:17:13;11.70;99.90
16578;DHT22;8401;52.528;13.340;2023-04-15T14:19:39;11.60;99.90
16578;DHT22;8401;52.528;13.340;2023-04-15T14:22:04;11.60;99.90
16578;DHT22;8401;52.528;13.340;2023-04-15T14:24:30;11.60;99.90
16578;DHT22;8401;52.528;13.340;2023-04-15T14:26:57;11.60;99.90
16578;DHT22;8401;52.528;13.340;2023-04-15T14:29:23;11.90;99.90
16578;DHT22;8401;52.528;13.340;2023-04-15T14:31:48;11.80;99.90
16578;DHT22;8401;52.528;13.340;2023-04-15T14:34:15;11.70;99.90
16578;DHT22;8401;52.528;13.340;2023-04-15T14:36:41;11.70;99.90
16578;DHT22;8401;52.528;13.340;2023-04-15T14:39:07;11.70;99.90
16578;DHT22;8401;52.528;13.340;2023-04-15T14:41:33;11.70;99.90
16578;DHT22;8401;52.528;13.340;2023-04-15T14:43:59;11.50;99.90
16578;DHT22;8401;52.528;13.340;2023-04-15T14:46:25;11.50;99.90
16578;DHT22;8401;52.528;13.340;2023-04-15T14:48:51;11.40;99.90
16578;DHT22;8401;52.528;13.340;2023-04-15T14:51:17;11.40;99.90
16578;DHT22;8401;52.528;13.340;2023-04-15T14:53:42;11.40;99.90
16578;DHT22;8401;52.528;13.340;2023-04-15T14:56:13;11.50;99.90
16578;DHT22;8401;52.528;13.340;2023-04-15T14:58:39;11.60;99.90
16578;DHT22;8401;52.528;13.340;2023-04-15T15:01:04;11.50;99.90
16578;DHT22;8401;52.528;13.340;2023-04-15T15:03:30;11.50;99.90
16578;DHT22;8401;52.528;13.340;2023-04-15T15:05:56;11.50;99.90
16578;DHT22;8401;52.528;13.340;2023-04-15T15:08:22;11.40;99.90
16578;DHT22;8401;52.528;13.340;2023-04-15T15:10:48;11.40;99.90
16578;DHT22;8401;52.528;13.340;2023-04-15T15:13:14;11.40;99.90
16578;DHT22;8401;52.528;13.340;2023-04-15T15:15:40;11.40;99.90
16578;DHT22;8401;52.528;13.340;2023-04-15T15:18:06;11.30;99.90
16578;DHT22;8401;52.528;13.340;2023-04-15T15:20:32;11.30;99.90
16578;DHT22;8401;52.528;13.340;2023-04-15T15:22:58;11.30;99.90
16578;DHT22;8401;52.528;13.340;2023-04-15T15:25:24;11.40;99.90
16578;DHT22;8401;52.528;13.340;2023-04-15T15:27:50;11.30;99.90
16578;DHT22;8401;52.528;13.340;2023-04-15T15:30:16;11.40;99.90
16578;DHT22;8401;52.528;13.340;2023-04-15T15:32:42;11.30;99.90
16578;DHT22;8401;52.528;13.340;2023-04-15T15:35:09;11.30;99.90
16578;DHT22;8401;52.528;13.340;2023-04-15T15:37:35;11.30;99.90
16578;DHT22;8401;52.528;13.340;2023-04-15T15:40:03;11.30;99.90
16578;DHT22;8401;52.528;13.340;2023-04-15T15:42:32;11.30;99.90
16578;DHT22;8401;52.528;13.340;2023-04-15T15:44:58;11.30;99.90
16578;DHT22;8401;52.528;13.340;2023-04-15T15:47:24;11.40;99.90
16578;DHT22;8401;52.528;13.340;2023-04-15T15:49:52;11.40;99.90
16578;DHT22;8401;52.528;13.340;2023-04-15T15:52:18;11.30;99.90
16578;DHT22;8401;52.528;13.340;2023-04-15T15:54:44;11.30;99.90
16578;DHT22;8401;52.528;13.340;2023-04-15T15:57:10;11.40;99.90